Time;durP1;ratioP1;P1;durP2;ratioP2;P2;SDS_P1;SDS_P2;PMS_P1;PMS_P2;Temp;Humidity;BMP_temperature;BMP_pressure;BME280_temperature;BME280_humidity;BME280_pressure;Samples;Min_cycle;Max_cycle;Signal;HPM_P1;HPM_P2
2022/02/18 00:00:54;;;;;;;6.45;1.00;;;6.60;73.10;;;;;;4981966;28;20026;-74
2022/02/18 00:03:26;;;;;;;11.10;1.00;;;6.60;73.20;;;;;;4984399;28;20037;-74
2022/02/18 00:05:53;;;;;;;9.07;1.85;;;6.60;73.30;;;;;;4981758;28;20532;-74
2022/02/18 00:08:19;;;;;;;7.53;1.30;;;6.60;73.40;;;;;;4982575;28;20429;-75
2022/02/18 00:10:45;;;;;;;5.95;0.90;;;6.60;73.80;;;;;;4981985;28;20038;-75
2022/02/18 00:13:12;;;;;;;9.23;1.02;;;6.60;74.60;;;;;;4995453;28;20033;-75
2022/02/18 00:15:39;;;;;;;9.80;1.55;;;6.50;74.40;;;;;;4982657;28;20149;-76
2022/02/18 00:18:05;;;;;;;3.22;0.82;;;6.50;74.30;;;;;;4982384;28;20793;-76
2022/02/18 00:20:33;;;;;;;6.35;1.13;;;6.50;74.00;;;;;;4982475;28;20540;-75
2022/02/18 00:23:03;;;;;;;7.68;1.50;;;6.50;74.10;;;;;;4983654;28;20514;-76
2022/02/18 00:25:29;;;;;;;7.65;1.20;;;6.50;74.50;;;;;;4983072;28;20521;-75
2022/02/18 00:27:57;;;;;;;7.90;1.20;;;6.50;74.60;;;;;;4989531;28;20026;-72
2022/02/18 00:30:24;;;;;;;9.27;1.50;;;6.40;74.80;;;;;;4977874;28;20481;-73
2022/02/18 00:32:49;;;;;;;7.43;1.00;;;6.50;74.90;;;;;;4981472;28;20027;-74
2022/02/18 00:35:19;;;;;;;7.50;1.35;;;6.50;75.00;;;;;;4979308;28;20965;-74
2022/02/18 00:37:49;;;;;;;8.98;1.10;;;6.40;75.20;;;;;;4980653;28;20070;-75
2022/02/18 00:40:15;;;;;;;9.90;1.00;;;6.40;75.50;;;;;;4987373;28;20045;-73
2022/02/18 00:42:41;;;;;;;7.80;1.10;;;6.40;75.10;;;;;;4977825;28;20097;-74
2022/02/18 00:45:08;;;;;;;9.88;1.40;;;6.40;75.10;;;;;;4975801;28;20038;-75
2022/02/18 00:47:34;;;;;;;8.57;1.35;;;6.40;74.40;;;;;;4981674;28;20044;-75
2022/02/18 00:50:00;;;;;;;3.63;1.20;;;6.50;75.10;;;;;;4979681;28;20030;-74
2022/02/18 00:52:25;;;;;;;6.60;1.05;;;6.40;74.80;;;;;;4979842;28;20050;-74
2022/02/18 00:54:52;;;;;;;5.93;1.13;;;6.40;75.20;;;;;;4990485;28;20033;-74
2022/02/18 00:57:18;;;;;;;6.63;0.98;;;6.50;74.70;;;;;;4979307;28;20029;-73
2022/02/18 00:59:46;;;;;;;5.00;1.02;;;6.40;74.20;;;;;;4989368;28;20633;-74
2022/02/18 01:02:12;;;;;;;9.70;1.38;;;6.40;75.10;;;;;;4988909;28;20117;-74
2022/02/18 01:04:38;;;;;;;4.43;0.90;;;6.40;74.50;;;;;;4978280;28;20677;-75
2022/02/18 01:07:04;;;;;;;5.93;1.13;;;6.30;74.50;;;;;;4981178;28;20060;-76
2022/02/18 01:09:30;;;;;;;6.35;1.25;;;6.30;74.90;;;;;;4980219;28;20026;-75
2022/02/18 01:11:56;;;;;;;6.65;1.05;;;6.30;75.40;;;;;;4983567;28;20068;-75
2022/02/18 01:14:22;;;;;;;7.93;1.20;;;6.30;74.40;;;;;;4982561;28;20062;-76
2022/02/18 01:16:50;;;;;;;5.85;1.02;;;6.30;74.90;;;;;;4983568;28;20027;-75
2022/02/18 01:19:16;;;;;;;6.85;1.17;;;6.30;74.90;;;;;;4999481;28;20037;-66
2022/02/18 01:21:42;;;;;;;3.33;1.35;;;6.20;75.00;;;;;;4983038;28;20380;-75
2022/02/18 01:24:08;;;;;;;6.18;1.25;;;6.20;75.40;;;;;;4984303;28;20054;-75
2022/02/18 01:26:34;;;;;;;10.60;1.05;;;6.20;75.20;;;;;;4985317;28;20072;-75
2022/02/18 01:29:01;;;;;;;9.07;0.80;;;6.20;75.20;;;;;;4988757;28;20030;-75
2022/02/18 01:31:27;;;;;;;6.57;1.40;;;6.30;75.40;;;;;;4982446;28;20502;-75
2022/02/18 01:33:55;;;;;;;5.70;1.50;;;6.20;75.50;;;;;;4974789;28;20034;-75
2022/02/18 01:36:22;;;;;;;5.35;0.95;;;6.20;74.90;;;;;;4985260;28;20019;-75
2022/02/18 01:38:52;;;;;;;5.13;1.10;;;6.30;75.10;;;;;;4966948;28;20486;-75
2022/02/18 01:41:19;;;;;;;7.78;1.48;;;6.20;75.80;;;;;;4988345;28;20018;-75
2022/02/18 01:43:52;;;;;;;5.32;1.13;;;6.20;76.00;;;;;;4995572;28;20034;-75
2022/02/18 01:46:18;;;;;;;5.05;0.90;;;6.10;75.80;;;;;;4989891;28;20034;-75
2022/02/18 01:48:43;;;;;;;6.38;1.15;;;6.10;75.90;;;;;;4992289;28;20525;-75
2022/02/18 01:51:10;;;;;;;6.30;1.13;;;6.10;76.50;;;;;;4984562;28;20046;-75
2022/02/18 01:53:36;;;;;;;8.48;1.10;;;6.10;76.40;;;;;;4984704;28;20038;-75
2022/02/18 01:56:03;;;;;;;6.50;1.15;;;6.00;76.60;;;;;;4987942;28;20479;-75
2022/02/18 01:58:30;;;;;;;6.97;1.00;;;6.00;76.60;;;;;;4981886;28;20391;-75
2022/02/18 02:00:57;;;;;;;6.93;0.90;;;6.00;77.00;;;;;;4983794;28;20032;-75
2022/02/18 02:03:24;;;;;;;5.25;1.05;;;5.90;76.90;;;;;;4983123;28;20716;-75
2022/02/18 02:05:55;;;;;;;6.80;0.98;;;5.90;77.00;;;;;;4980908;28;20039;-75
2022/02/18 02:08:22;;;;;;;8.00;1.10;;;5.90;77.40;;;;;;4978665;28;20117;-75
2022/02/18 02:10:51;;;;;;;7.05;2.25;;;5.80;77.30;;;;;;4982815;28;20069;-75
2022/02/18 02:13:28;;;;;;;8.90;1.17;;;5.90;77.20;;;;;;4978922;28;20511;-74
2022/02/18 02:15:54;;;;;;;;;;;5.80;77.30;;;;;;4984674;28;20095;-75
2022/02/18 02:18:20;;;;;;;11.97;1.07;;;5.80;77.60;;;;;;4981908;28;19914;-75
2022/02/18 02:20:46;;;;;;;7.43;1.10;;;5.80;77.30;;;;;;4983008;28;20033;-75
2022/02/18 02:23:14;;;;;;;5.05;1.05;;;5.80;77.70;;;;;;4983455;28;20018;-75
2022/02/18 02:25:40;;;;;;;9.25;1.00;;;5.80;78.20;;;;;;4976855;28;20384;-75
2022/02/18 02:28:23;;;;;;;7.00;1.48;;;5.80;78.30;;;;;;4979214;28;20022;-75
2022/02/18 02:30:51;;;;;;;2.97;0.85;;;5.80;78.50;;;;;;4983202;28;20565;-75
2022/02/18 02:33:17;;;;;;;4.28;1.17;;;5.70;78.50;;;;;;4981733;28;20410;-75
2022/02/18 02:35:47;;;;;;;3.28;1.10;;;5.70;78.40;;;;;;4983912;28;20034;-75
2022/02/18 02:38:13;;;;;;;5.88;0.93;;;5.70;79.10;;;;;;4982416;28;20077;-75
2022/02/18 02:40:39;;;;;;;6.93;0.93;;;5.60;79.10;;;;;;4983212;28;20606;-74
2022/02/18 02:43:05;;;;;;;9.48;1.35;;;5.60;79.20;;;;;;4990084;28;20035;-75
2022/02/18 02:45:31;;;;;;;5.00;0.95;;;5.60;79.40;;;;;;4980885;28;20053;-75
2022/02/18 02:47:57;;;;;;;9.88;1.02;;;5.70;79.40;;;;;;4980510;28;20041;-75
2022/02/18 02:50:58;;;;;;;3.45;1.10;;;5.60;79.30;;;;;;4921898;29;20036;-75
2022/02/18 02:53:25;;;;;;;9.48;1.20;;;5.60;79.70;;;;;;4958142;28;20043;-75
2022/02/18 02:55:52;;;;;;;9.25;2.33;;;5.60;79.80;;;;;;4983730;28;20550;-75
2022/02/18 02:58:18;;;;;;;5.85;1.40;;;5.60;80.00;;;;;;4981466;28;20027;-75
2022/02/18 03:00:46;;;;;;;8.18;0.80;;;5.60;79.80;;;;;;4982123;28;20059;-75
2022/02/18 03:03:24;;;;;;;4.47;1.10;;;5.60;79.80;;;;;;4981103;28;20038;-75
2022/02/18 03:05:56;;;;;;;3.97;0.95;;;5.60;80.10;;;;;;4977373;28;20034;-75
2022/02/18 03:08:22;;;;;;;9.57;1.10;;;5.50;80.10;;;;;;4981139;28;20033;-75
2022/02/18 03:13:35;;;;;;;3.28;0.85;;;5.50;80.50;;;;;;4995818;28;20601;-75
2022/02/18 03:16:02;;;;;;;6.75;1.65;;;5.40;81.00;;;;;;4996836;28;20027;-75
2022/02/18 03:18:27;;;;;;;4.15;0.90;;;5.40;81.00;;;;;;4982870;28;20041;-75
2022/02/18 03:20:56;;;;;;;5.80;1.13;;;5.40;81.20;;;;;;4980114;28;20781;-75
2022/02/18 03:23:22;;;;;;;8.80;1.17;;;5.40;81.40;;;;;;4982584;28;20069;-75
2022/02/18 03:25:48;;;;;;;5.72;0.98;;;5.30;81.60;;;;;;4985798;28;20130;-75
2022/02/18 03:28:14;;;;;;;6.05;1.27;;;5.30;81.70;;;;;;4982812;28;20022;-75
2022/02/18 03:30:40;;;;;;;8.93;1.30;;;5.30;82.00;;;;;;4980516;28;20034;-75
2022/02/18 03:33:11;;;;;;;6.05;1.05;;;5.30;82.00;;;;;;4978925;28;20037;-75
2022/02/18 03:35:38;;;;;;;4.43;1.00;;;5.30;82.30;;;;;;5000996;28;20061;-75
2022/02/18 03:38:05;;;;;;;7.28;1.15;;;5.30;82.50;;;;;;4981393;28;20034;-75
2022/02/18 03:40:35;;;;;;;6.40;1.00;;;5.30;82.50;;;;;;4978070;28;20031;-75
2022/02/18 03:43:01;;;;;;;5.45;0.90;;;5.30;82.10;;;;;;4980404;28;20549;-75
2022/02/18 03:45:49;;;;;;;9.60;1.35;;;5.30;82.70;;;;;;4972960;28;20034;-75
2022/02/18 03:48:24;;;;;;;7.28;1.40;;;5.20;82.90;;;;;;4980169;28;20109;-75
2022/02/18 03:50:50;;;;;;;6.60;1.02;;;5.20;82.60;;;;;;4980546;28;20026;-75
2022/02/18 03:53:18;;;;;;;9.38;1.67;;;5.20;82.60;;;;;;4980168;28;20538;-75
2022/02/18 03:55:59;;;;;;;7.03;1.52;;;5.20;82.90;;;;;;4987776;28;20039;-75
2022/02/18 03:58:29;;;;;;;8.75;1.33;;;5.20;83.00;;;;;;4991396;28;20054;-75
2022/02/18 04:00:54;;;;;;;7.40;1.27;;;5.20;83.20;;;;;;4985910;28;20033;-75
2022/02/18 04:03:20;;;;;;;3.60;0.70;;;5.10;83.80;;;;;;4980211;28;20625;-75
2022/02/18 04:06:05;;;;;;;4.95;0.90;;;5.10;83.90;;;;;;4981125;28;20165;-75
2022/02/18 04:08:39;;;;;;;8.50;1.92;;;5.10;83.90;;;;;;4985849;28;20038;-75
2022/02/18 04:11:04;;;;;;;3.70;0.95;;;5.10;84.20;;;;;;4984564;28;20071;-75
2022/02/18 04:13:33;;;;;;;5.28;0.98;;;5.10;84.80;;;;;;4989492;28;20043;-76
2022/02/18 04:15:59;;;;;;;8.55;1.45;;;5.10;84.90;;;;;;4979795;28;20483;-76
2022/02/18 04:18:25;;;;;;;7.63;1.13;;;5.10;85.00;;;;;;4980967;28;20038;-75
2022/02/18 04:20:54;;;;;;;7.07;1.05;;;5.10;85.10;;;;;;4983791;28;20840;-75
2022/02/18 04:23:32;;;;;;;10.57;1.13;;;5.10;85.30;;;;;;4979987;28;20100;-75
2022/02/18 04:25:58;;;;;;;2.40;0.80;;;5.00;85.60;;;;;;4979884;28;20038;-75
2022/02/18 04:28:24;;;;;;;6.78;1.83;;;5.00;85.80;;;;;;4983963;28;20101;-75
2022/02/18 04:30:50;;;;;;;3.60;0.90;;;5.00;86.00;;;;;;4988442;28;20120;-75
2022/02/18 04:33:16;;;;;;;3.50;0.85;;;5.00;86.00;;;;;;4982146;28;20042;-75
2022/02/18 04:35:44;;;;;;;4.43;1.38;;;5.00;86.00;;;;;;4982777;28;20026;-76
2022/02/18 04:38:10;;;;;;;2.05;0.90;;;5.00;86.00;;;;;;4981650;28;20031;-75
2022/02/18 04:40:36;;;;;;;6.05;0.82;;;5.00;86.40;;;;;;4981913;28;20076;-75
2022/02/18 04:43:01;;;;;;;6.82;1.10;;;5.00;86.60;;;;;;4983059;28;20513;-75
2022/02/18 04:45:29;;;;;;;9.15;1.20;;;4.90;86.70;;;;;;4984966;28;20034;-75
2022/02/18 04:47:55;;;;;;;4.78;1.40;;;4.90;86.70;;;;;;4984883;28;20042;-75
2022/02/18 04:50:22;;;;;;;6.47;1.17;;;4.80;86.90;;;;;;4985776;28;20029;-75
2022/02/18 04:52:48;;;;;;;7.53;1.05;;;4.80;86.80;;;;;;4985396;28;20042;-76
2022/02/18 04:55:13;;;;;;;7.22;1.52;;;4.80;87.30;;;;;;4986280;28;20030;-75
2022/02/18 04:57:48;;;;;;;5.28;1.27;;;4.70;87.60;;;;;;4985171;28;20113;-75
2022/02/18 05:00:18;;;;;;;3.25;1.02;;;4.70;88.00;;;;;;4985006;28;20039;-75
2022/02/18 05:02:47;;;;;;;5.97;1.17;;;4.70;88.10;;;;;;4984692;28;20080;-75
2022/02/18 05:05:12;;;;;;;8.00;1.05;;;4.70;89.00;;;;;;4984943;28;20113;-75
2022/02/18 05:07:38;;;;;;;2.38;1.10;;;4.70;88.20;;;;;;4984902;28;20050;-75
2022/02/18 05:10:05;;;;;;;6.00;1.25;;;4.80;88.40;;;;;;4985364;28;20030;-75
2022/02/18 05:12:31;;;;;;;5.30;1.08;;;4.80;88.30;;;;;;4985420;28;20097;-75
2022/02/18 05:14:57;;;;;;;8.77;1.67;;;4.80;88.10;;;;;;4984265;28;20053;-75
2022/02/18 05:17:23;;;;;;;5.50;1.30;;;4.80;88.30;;;;;;4984721;28;20038;-75
2022/02/18 05:19:49;;;;;;;6.70;1.65;;;4.90;88.40;;;;;;4984773;28;20030;-75
2022/02/18 05:22:14;;;;;;;6.18;1.08;;;4.90;88.50;;;;;;4982372;28;20026;-75
2022/02/18 05:24:40;;;;;;;12.57;1.83;;;4.90;88.60;;;;;;4979157;28;20037;-75
2022/02/18 05:27:06;;;;;;;3.17;1.10;;;4.90;88.50;;;;;;4995562;28;20043;-75
2022/02/18 05:29:32;;;;;;;6.68;1.30;;;4.90;88.40;;;;;;4984629;28;20134;-75
2022/02/18 05:32:00;;;;;;;7.32;1.20;;;4.90;88.60;;;;;;4985185;28;20046;-75
2022/02/18 05:34:26;;;;;;;7.65;1.92;;;4.90;88.80;;;;;;4977821;28;20046;-75
2022/02/18 05:36:51;;;;;;;9.73;1.48;;;4.80;89.10;;;;;;4988055;28;20031;-75
2022/02/18 05:39:17;;;;;;;5.90;1.52;;;4.80;89.40;;;;;;4994229;28;20401;-75
2022/02/18 05:41:43;;;;;;;3.40;2.15;;;4.80;89.70;;;;;;4981684;28;20038;-75
2022/02/18 05:44:09;;;;;;;6.25;2.13;;;4.70;89.90;;;;;;4980127;28;20088;-75
2022/02/18 05:46:34;;;;;;;6.00;1.50;;;4.70;90.00;;;;;;4979474;28;20061;-75
2022/02/18 05:49:00;;;;;;;7.30;1.50;;;4.70;90.10;;;;;;4985952;28;20034;-75
2022/02/18 05:51:26;;;;;;;2.20;1.10;;;4.70;90.30;;;;;;4984192;28;20046;-75
2022/02/18 05:53:52;;;;;;;8.02;1.48;;;4.70;90.40;;;;;;4993161;28;20483;-75
2022/02/18 05:56:17;;;;;;;5.55;1.58;;;4.60;90.50;;;;;;4991006;28;20030;-75
2022/02/18 05:58:45;;;;;;;8.93;1.58;;;4.60;90.70;;;;;;4987830;28;20031;-75
2022/02/18 06:01:10;;;;;;;4.95;1.40;;;4.60;90.40;;;;;;4987119;28;20034;-75
2022/02/18 06:03:36;;;;;;;6.97;1.40;;;4.60;90.60;;;;;;4982360;28;20041;-75
2022/02/18 06:06:03;;;;;;;6.25;1.83;;;4.60;90.70;;;;;;4982225;28;20040;-75
2022/02/18 06:08:28;;;;;;;7.32;1.92;;;4.60;91.00;;;;;;4979297;28;20093;-75
2022/02/18 06:10:54;;;;;;;4.70;1.35;;;4.60;90.80;;;;;;4975137;28;20038;-75
2022/02/18 06:13:20;;;;;;;9.50;1.50;;;4.60;90.80;;;;;;4983996;28;20030;-75
2022/02/18 06:15:46;;;;;;;5.63;1.70;;;4.60;90.80;;;;;;4981029;28;20139;-75
2022/02/18 06:18:12;;;;;;;5.63;1.40;;;4.60;90.90;;;;;;4984008;28;20125;-75
2022/02/18 06:20:37;;;;;;;3.20;1.65;;;4.50;90.90;;;;;;4973441;28;20125;-75
2022/02/18 06:23:03;;;;;;;6.85;1.90;;;4.60;91.00;;;;;;4977637;28;20074;-75
2022/02/18 06:25:29;;;;;;;9.35;1.80;;;4.60;91.00;;;;;;4982501;28;20490;-75
2022/02/18 06:28:08;;;;;;;5.85;2.63;;;4.60;91.00;;;;;;4975540;28;20033;-75
2022/02/18 06:30:34;;;;;;;5.28;2.00;;;4.70;91.20;;;;;;4986700;28;20034;-75
2022/02/18 06:33:00;;;;;;;8.48;2.72;;;4.80;91.20;;;;;;4984538;28;20026;-75
2022/02/18 06:35:26;;;;;;;16.27;2.95;;;4.90;91.00;;;;;;4979017;28;20148;-75
2022/02/18 06:37:53;;;;;;;6.90;2.05;;;4.90;90.80;;;;;;4975069;28;20030;-75
2022/02/18 06:40:18;;;;;;;5.78;2.10;;;5.00;90.80;;;;;;4971849;28;20058;-74
2022/02/18 06:42:44;;;;;;;7.18;2.38;;;5.10;90.90;;;;;;4984881;28;20802;-75
2022/02/18 06:45:10;;;;;;;8.95;2.47;;;5.30;90.70;;;;;;4983718;28;20873;-75
2022/02/18 06:47:35;;;;;;;5.07;1.88;;;5.30;90.50;;;;;;4975522;28;20133;-75
2022/02/18 06:50:02;;;;;;;7.32;2.80;;;5.40;90.30;;;;;;4983565;28;20060;-74
2022/02/18 06:52:27;;;;;;;6.93;2.17;;;5.50;90.30;;;;;;4982768;28;20109;-74
2022/02/18 06:54:58;;;;;;;8.10;2.50;;;5.60;90.20;;;;;;4982579;28;20034;-75
2022/02/18 06:57:23;;;;;;;7.60;2.45;;;5.70;90.20;;;;;;4990480;28;20441;-75
2022/02/18 06:59:49;;;;;;;6.28;2.95;;;5.80;89.90;;;;;;4975320;28;20028;-75
2022/02/18 07:02:15;;;;;;;9.30;2.55;;;5.90;89.40;;;;;;4975524;28;20054;-74
2022/02/18 07:04:40;;;;;;;9.65;2.80;;;6.00;89.10;;;;;;4978893;28;20486;-75
2022/02/18 07:07:06;;;;;;;7.57;2.35;;;6.10;88.40;;;;;;4972132;28;20112;-75
2022/02/18 07:09:32;;;;;;;7.85;3.13;;;6.20;88.20;;;;;;4977374;28;20045;-74
2022/02/18 07:11:58;;;;;;;6.55;2.33;;;6.30;87.80;;;;;;4978875;28;20086;-75
2022/02/18 07:14:25;;;;;;;7.72;2.40;;;6.40;87.60;;;;;;4985384;28;20022;-75
2022/02/18 07:16:51;;;;;;;6.93;2.72;;;6.40;87.20;;;;;;4976951;28;20050;-75
2022/02/18 07:19:17;;;;;;;6.93;2.75;;;6.60;86.50;;;;;;4975363;28;20039;-74
2022/02/18 07:21:43;;;;;;;8.82;3.08;;;6.70;86.30;;;;;;4980680;28;20736;-75
2022/02/18 07:24:10;;;;;;;9.50;2.90;;;6.70;85.70;;;;;;4979555;28;20101;-75
2022/02/18 07:26:37;;;;;;;11.18;2.60;;;6.80;85.60;;;;;;4974619;28;20558;-75
2022/02/18 07:29:03;;;;;;;18.63;3.80;;;6.90;85.50;;;;;;4980689;28;20030;-75
2022/02/18 07:31:29;;;;;;;9.57;2.65;;;7.00;84.60;;;;;;4985071;28;20486;-75
2022/02/18 07:33:54;;;;;;;12.93;3.03;;;7.00;84.40;;;;;;4985636;28;20030;-75
2022/02/18 07:36:20;;;;;;;6.13;2.63;;;7.20;84.10;;;;;;4978063;28;20519;-75
2022/02/18 07:38:46;;;;;;;10.52;2.75;;;7.30;83.80;;;;;;4989438;28;20056;-75
2022/02/18 07:41:12;;;;;;;9.00;2.20;;;7.40;82.90;;;;;;4983033;28;20069;-78
2022/02/18 07:43:37;;;;;;;9.65;2.58;;;7.40;82.40;;;;;;4980499;28;20052;-72
2022/02/18 07:46:03;;;;;;;11.77;3.00;;;7.50;82.30;;;;;;4979745;28;20041;-73
2022/02/18 07:48:29;;;;;;;16.08;6.25;;;7.60;82.00;;;;;;4981295;28;20039;-73
2022/02/18 07:50:55;;;;;;;8.77;2.72;;;7.70;82.00;;;;;;4982139;28;20712;-73
2022/02/18 07:53:21;;;;;;;5.30;2.63;;;7.70;81.30;;;;;;4980530;28;20031;-73
2022/02/18 07:55:48;;;;;;;11.15;3.08;;;7.70;80.90;;;;;;4981958;28;20069;-75
2022/02/18 07:58:15;;;;;;;7.85;2.10;;;7.70;81.40;;;;;;4975954;28;20031;-76
2022/02/18 08:00:40;;;;;;;6.43;2.35;;;7.80;80.80;;;;;;4974315;28;20030;-73
2022/02/18 08:03:06;;;;;;;8.02;2.38;;;8.00;80.30;;;;;;4982541;28;20536;-73
2022/02/18 08:05:32;;;;;;;8.80;2.50;;;8.10;79.50;;;;;;4987830;28;20084;-73
2022/02/18 08:07:58;;;;;;;7.78;2.22;;;8.10;79.10;;;;;;4979921;28;20041;-73
2022/02/18 08:10:25;;;;;;;12.88;2.85;;;8.20;78.80;;;;;;4997101;28;20038;-73
2022/02/18 08:12:51;;;;;;;13.75;2.80;;;8.30;78.70;;;;;;4988153;28;20034;-73
2022/02/18 08:15:17;;;;;;;6.82;2.70;;;8.50;77.90;;;;;;4991609;28;20125;-73
2022/02/18 08:17:43;;;;;;;45.80;17.52;;;8.50;77.60;;;;;;4984111;28;20113;-71
2022/02/18 08:20:11;;;;;;;13.38;6.63;;;8.60;77.00;;;;;;4980790;28;20023;-73
2022/02/18 08:22:37;;;;;;;19.02;8.40;;;8.50;77.00;;;;;;4992986;28;20038;-72
2022/02/18 08:25:04;;;;;;;29.98;11.18;;;8.60;77.40;;;;;;4984264;28;20148;-73
2022/02/18 08:27:30;;;;;;;16.50;7.68;;;8.80;77.00;;;;;;4985316;28;20034;-72
2022/02/18 08:29:56;;;;;;;20.88;9.25;;;8.90;75.90;;;;;;4991059;28;20687;-72
2022/02/18 08:32:22;;;;;;;9.57;3.10;;;9.00;75.70;;;;;;4979217;28;20135;-71
2022/02/18 08:34:47;;;;;;;9.00;3.45;;;9.00;74.90;;;;;;4985506;28;20038;-71
2022/02/18 08:37:14;;;;;;;9.40;2.92;;;9.10;74.70;;;;;;4981434;28;20031;-73
2022/02/18 08:39:40;;;;;;;11.85;3.10;;;9.00;74.70;;;;;;4985942;28;20513;-75
2022/02/18 08:42:07;;;;;;;9.05;2.83;;;8.90;74.50;;;;;;4983105;28;20088;-74
2022/02/18 08:44:33;;;;;;;11.23;3.28;;;9.00;75.10;;;;;;4989309;28;20042;-72
2022/02/18 08:46:59;;;;;;;12.40;3.63;;;9.00;75.10;;;;;;4986055;28;20058;-72
2022/02/18 08:49:25;;;;;;;11.38;2.70;;;9.20;74.20;;;;;;4982970;28;20042;-75
2022/02/18 08:51:51;;;;;;;10.55;3.60;;;9.30;74.00;;;;;;4979519;28;20060;-75
2022/02/18 08:54:17;;;;;;;11.10;4.65;;;9.40;73.60;;;;;;4985580;28;20034;-73
2022/02/18 08:56:44;;;;;;;12.10;2.83;;;9.50;73.10;;;;;;4981900;28;20038;-69
2022/02/18 08:59:10;;;;;;;9.82;3.33;;;9.70;72.60;;;;;;4979617;28;20023;-76
2022/02/18 09:01:36;;;;;;;9.50;2.65;;;9.80;71.70;;;;;;4980708;28;20038;-72
2022/02/18 09:04:02;;;;;;;13.75;3.70;;;9.90;71.70;;;;;;4989728;28;20037;-71
2022/02/18 09:06:28;;;;;;;17.52;5.90;;;10.00;70.20;;;;;;4979057;28;20086;-71
2022/02/18 09:08:54;;;;;;;64.55;22.98;;;10.20;70.50;;;;;;4990678;28;20049;-71
2022/02/18 09:11:20;;;;;;;34.28;16.60;;;10.30;69.60;;;;;;4975498;28;20035;-76
2022/02/18 09:13:46;;;;;;;11.38;2.80;;;10.60;68.80;;;;;;4973485;28;20072;-79
2022/02/18 09:16:12;;;;;;;19.02;6.57;;;10.40;69.00;;;;;;4975744;28;20030;-73
2022/02/18 09:18:45;;;;;;;18.88;7.70;;;10.50;69.00;;;;;;4992095;28;20055;-73
2022/02/18 09:21:11;;;;;;;7.90;1.77;;;10.60;68.80;;;;;;4986927;28;20350;-73
2022/02/18 09:23:37;;;;;;;10.40;3.63;;;10.70;67.60;;;;;;4976700;28;20434;-73
2022/02/18 09:26:03;;;;;;;4.78;2.10;;;10.60;68.60;;;;;;4993903;28;20204;-73
2022/02/18 09:28:29;;;;;;;19.13;6.28;;;10.50;68.70;;;;;;4984740;28;20038;-73
2022/02/18 09:30:56;;;;;;;19.70;9.18;;;10.30;69.40;;;;;;4978485;28;20040;-73
2022/02/18 09:33:22;;;;;;;24.73;8.63;;;10.20;70.00;;;;;;4978065;28;20030;-73
2022/02/18 09:35:48;;;;;;;23.38;10.50;;;10.30;70.20;;;;;;4992423;28;20089;-79
2022/02/18 09:38:16;;;;;;;12.13;6.05;;;10.40;69.90;;;;;;4991617;28;20057;-73
2022/02/18 09:40:42;;;;;;;7.55;2.55;;;10.30;69.70;;;;;;4977006;28;20135;-74
2022/02/18 09:43:08;;;;;;;13.68;6.05;;;10.20;69.80;;;;;;4978213;28;20101;-74
2022/02/18 09:45:34;;;;;;;7.43;1.90;;;10.30;70.30;;;;;;4982003;28;20042;-73
2022/02/18 09:48:01;;;;;;;8.38;1.77;;;10.20;70.00;;;;;;4975594;28;20113;-71
2022/02/18 09:50:28;;;;;;;8.77;3.30;;;10.10;70.80;;;;;;4983884;28;20030;-73
2022/02/18 09:52:54;;;;;;;9.25;4.25;;;10.10;71.10;;;;;;4979153;28;20041;-73
2022/02/18 09:55:20;;;;;;;9.27;1.90;;;10.30;70.90;;;;;;4989036;28;20030;-72
2022/02/18 09:57:51;;;;;;;7.57;1.65;;;10.30;69.70;;;;;;4973558;28;20088;-73
2022/02/18 10:00:17;;;;;;;11.43;2.10;;;10.30;70.40;;;;;;4975964;28;20054;-73
2022/02/18 10:02:43;;;;;;;9.25;2.15;;;10.20;71.20;;;;;;4981744;28;20039;-73
2022/02/18 10:05:09;;;;;;;8.65;1.63;;;10.30;71.00;;;;;;4978481;28;20034;-73
2022/02/18 10:08:31;;;;;;;5.95;1.67;;;10.30;70.40;;;;;;4992153;28;20042;-73
2022/02/18 10:11:02;;;;;;;5.35;1.52;;;10.20;70.80;;;;;;4954520;28;20046;-81
2022/02/18 10:13:36;;;;;;;6.15;1.55;;;10.30;70.50;;;;;;4967715;28;20051;-82
2022/02/18 10:16:04;;;;;;;9.43;2.35;;;10.40;70.30;;;;;;4987452;28;20092;-81
2022/02/18 10:18:58;;;;;;;11.63;2.20;;;10.20;71.20;;;;;;4979483;28;20057;-81
2022/02/18 10:21:30;;;;;;;8.02;2.05;;;10.20;71.60;;;;;;4979989;28;20037;-81
2022/02/18 10:24:18;;;;;;;7.25;2.25;;;10.30;71.10;;;;;;4981505;28;20145;-82
2022/02/18 10:26:49;;;;;;;12.05;1.70;;;10.40;70.90;;;;;;4987501;28;20057;-81
2022/02/18 10:29:25;;;;;;;12.68;2.30;;;10.50;70.60;;;;;;4994335;28;20030;-81
2022/02/18 10:32:14;;;;;;;17.92;4.00;;;10.50;70.20;;;;;;4988125;28;20678;-81
2022/02/18 10:35:04;;;;;;;14.35;2.75;;;10.40;70.90;;;;;;4976220;28;20569;-82
2022/02/18 10:37:31;;;;;;;6.15;1.50;;;10.40;71.20;;;;;;4986867;28;20518;-82
2022/02/18 10:40:14;;;;;;;8.63;1.92;;;10.30;71.20;;;;;;4982640;28;20034;-81
2022/02/18 10:42:41;;;;;;;18.00;3.30;;;10.10;72.00;;;;;;4975976;28;20118;-79
2022/02/18 10:45:18;;;;;;;8.75;2.20;;;10.10;73.10;;;;;;4983312;28;20038;-78
2022/02/18 10:47:45;;;;;;;8.07;2.20;;;10.00;72.40;;;;;;4978113;28;20038;-78
2022/02/18 10:50:19;;;;;;;15.30;2.47;;;9.90;73.00;;;;;;4984976;28;20518;-77
2022/02/18 10:53:09;;;;;;;13.77;2.83;;;9.90;73.60;;;;;;4980378;28;20053;-80
2022/02/18 10:56:02;;;;;;;9.88;2.47;;;10.00;73.20;;;;;;4981060;28;20803;-78
2022/02/18 10:58:40;;;;;;;5.47;1.35;;;10.00;74.70;;;;;;4976198;28;20038;-80
2022/02/18 11:01:08;;;;;;;9.63;2.03;;;9.90;73.00;;;;;;4982489;28;20053;-78
2022/02/18 11:03:36;;;;;;;5.80;2.08;;;9.70;74.90;;;;;;4997986;28;20041;-81
2022/02/18 11:06:20;;;;;;;7.47;2.00;;;9.60;75.70;;;;;;4983187;28;20036;-77
2022/02/18 11:08:51;;;;;;;5.82;1.65;;;9.50;77.40;;;;;;4987287;28;20572;-81
2022/02/18 11:11:18;;;;;;;6.18;1.25;;;9.40;78.00;;;;;;4978440;28;20060;-80
2022/02/18 11:13:44;;;;;;;6.38;1.70;;;9.30;77.60;;;;;;4979712;28;20112;-77
2022/02/18 11:16:13;;;;;;;6.93;1.38;;;9.40;78.30;;;;;;4977000;28;20039;-78
2022/02/18 11:18:39;;;;;;;5.97;2.15;;;9.30;78.20;;;;;;4986743;28;20046;-80
2022/02/18 11:21:09;;;;;;;5.05;1.52;;;9.20;79.10;;;;;;4997002;28;20034;-74
2022/02/18 11:23:37;;;;;;;7.60;1.20;;;9.20;79.70;;;;;;4981904;28;20034;-72
2022/02/18 11:26:03;;;;;;;6.50;1.40;;;9.20;79.50;;;;;;4977733;28;20030;-75
2022/02/18 11:28:28;;;;;;;6.35;2.00;;;9.20;79.40;;;;;;4966542;28;20027;-82
2022/02/18 11:31:01;;;;;;;5.68;1.98;;;9.30;79.90;;;;;;4986614;28;20033;-80
2022/02/18 11:33:27;;;;;;;2.95;1.33;;;9.40;79.60;;;;;;4982289;28;20026;-80
2022/02/18 11:36:13;;;;;;;8.15;1.77;;;9.50;79.20;;;;;;4975139;28;20717;-80
2022/02/18 11:38:58;;;;;;;5.97;1.48;;;9.60;79.50;;;;;;4980903;28;20117;-80
2022/02/18 11:42:01;;;;;;;5.10;1.48;;;9.50;79.40;;;;;;4980292;28;20043;-70
2022/02/18 11:44:31;;;;;;;4.18;1.38;;;9.60;79.60;;;;;;4985056;28;20066;-75
2022/02/18 11:47:35;;;;;;;6.32;1.70;;;9.50;79.90;;;;;;4985353;28;20384;-74
2022/02/18 11:50:14;;;;;;;9.45;2.20;;;9.50;80.50;;;;;;4935273;28;20078;-78
2022/02/18 11:52:50;;;;;;;7.07;1.80;;;9.60;80.60;;;;;;4935685;28;20633;-80
2022/02/18 11:55:29;;;;;;;5.32;3.00;;;9.70;80.60;;;;;;4972410;28;20102;-78
2022/02/18 11:58:11;;;;;;;4.55;1.85;;;9.70;80.20;;;;;;4977708;28;20519;-78
2022/02/18 12:00:48;;;;;;;10.57;2.25;;;9.60;80.50;;;;;;4982956;28;20550;-80
2022/02/18 12:03:19;;;;;;;10.48;2.40;;;9.60;80.90;;;;;;4984712;28;20030;-82
2022/02/18 12:06:09;;;;;;;9.48;2.58;;;9.80;80.70;;;;;;4977899;28;20065;-81
2022/02/18 12:08:40;;;;;;;11.65;2.17;;;9.80;79.20;;;;;;4975320;28;20169;-81
2022/02/18 12:11:08;;;;;;;7.28;2.17;;;9.80;79.50;;;;;;4979370;28;20034;-81
2022/02/18 12:13:52;;;;;;;6.15;1.92;;;9.70;79.10;;;;;;4981635;28;20030;-78
2022/02/18 12:16:20;;;;;;;7.53;1.70;;;9.60;78.90;;;;;;4980616;28;20037;-79
2022/02/18 12:19:05;;;;;;;6.85;2.08;;;9.50;79.90;;;;;;4975627;28;20604;-80
2022/02/18 12:21:31;;;;;;;11.30;2.13;;;9.50;81.10;;;;;;4981625;28;20030;-79
2022/02/18 12:23:57;;;;;;;9.68;2.00;;;9.40;80.60;;;;;;4977632;28;20108;-80
2022/02/18 12:26:24;;;;;;;9.90;2.63;;;9.30;81.40;;;;;;4974591;28;20042;-78
2022/02/18 12:29:21;;;;;;;8.60;2.88;;;9.30;81.70;;;;;;4976649;28;20038;-79
2022/02/18 12:31:52;;;;;;;9.98;1.55;;;9.10;81.30;;;;;;4978419;28;20067;-79
2022/02/18 12:34:28;;;;;;;7.70;1.40;;;8.90;83.00;;;;;;4981284;28;20049;-79
2022/02/18 12:36:55;;;;;;;6.35;1.30;;;8.80;82.20;;;;;;4981610;28;20050;-79
2022/02/18 12:39:38;;;;;;;6.85;1.27;;;8.50;83.90;;;;;;4967739;28;20039;-80
2022/02/18 12:42:16;;;;;;;7.78;1.38;;;8.40;85.10;;;;;;4973527;28;20034;-77
2022/02/18 12:44:46;;;;;;;11.23;2.47;;;8.30;86.00;;;;;;4973312;28;20061;-80
2022/02/18 12:47:15;;;;;;;9.38;1.70;;;8.20;87.20;;;;;;4980636;28;20042;-80
2022/02/18 12:49:42;;;;;;;12.10;1.83;;;8.10;88.70;;;;;;4980481;28;20042;-80
2022/02/18 12:52:11;;;;;;;9.15;1.65;;;8.00;89.60;;;;;;4982299;28;20034;-80
2022/02/18 12:54:53;;;;;;;7.05;2.15;;;8.00;89.90;;;;;;4981099;28;20032;-78
2022/02/18 12:57:28;;;;;;;18.70;1.77;;;7.80;90.60;;;;;;4982255;28;20402;-78
2022/02/18 12:59:54;;;;;;;9.82;1.55;;;7.70;91.40;;;;;;4994311;23;20507;-84
2022/02/18 13:02:42;;;;;;;6.93;1.77;;;7.60;92.00;;;;;;4991867;28;20105;-81
2022/02/18 13:05:19;;;;;;;7.55;1.92;;;7.60;92.70;;;;;;4979737;28;20048;-79